Paulistana II — 00 — position and weather

sailwx.info

Track history (hours):
 
Tides and Currents Weather Stations Pressure Air Temp Water Temp Dewpoint Dewpoint Depression Visibility Wind Speed Wind Dir Waves Ship Positions

Paulistana II

Last reported at 2015-Jan-31 15:33 UTC. Time now 2015-Jan-31 16:16 UTC.
Position N 31°52' E 120°53'.

Length 6 m.

Type: Pollution control. MMSI: 316014038.

Date/timePositionNaut miles runAvg speedWind from/ knotsBaromVisibWave heightAir tempDewpointWater temp
2015-Jan-31 15:33N 31°52' E 120°53'660148481.4
2015-Jan-31 15:33N 23°01' E 113°32'657236690.8
2015-Jan-31 15:33N 31°22' E 121°30'5050.7
2015-Jan-31 14:33N 31°59' E 120°50'491894.1
2015-Jan-31 14:32N 31°21' E 121°26'5657.3
2015-Jan-31 13:33N 31°60' E 120°39'65936480.4
2015-Jan-31 13:32N 23°01' E 113°32'658669.8
2015-Jan-31 12:33N 32°04' E 120°30'9 8.7
2015-Jan-31 11:33N 31°59' E 120°21'69387.5
2015-Jan-31 11:23N 31°23' E 121°31'7591.2
2015-Jan-31 10:33N 31°56' E 120°11'1313.1
2015-Jan-31 09:33N 31°59' E 120°27'2112772.2
2015-Jan-31 09:33N 31°58' E 120°01'8 7.8
2015-Jan-31 08:33N 32°04' E 119°56'274009.1
2015-Jan-31 08:33N 31°59' E 120°26'0 0.3
2015-Jan-31 07:33N 31°59' E 120°27'311478.5
2015-Jan-31 07:32N 32°11' E 119°53'3131.8
2015-Jan-31 06:33N 31°59' E 120°26'36722.9
2015-Jan-31 06:30N 32°18' E 119°50'2076.0
2015-Jan-31 06:15N 31°59' E 119°59'2333.6
2015-Jan-31 05:33N 31°59' E 120°26'1 1.3
2015-Jan-31 04:33N 31°58' E 120°25'3 2.8
2015-Jan-31 03:22N 32°01' E 120°23'2 1.9
2015-Jan-31 02:33N 32°02' E 120°24'0 0.1
2015-Jan-31 01:33N 32°02' E 120°24'0 0.1
2015-Jan-31 00:33N 32°02' E 120°24'0 0.2
2015-Jan-30 23:33N 32°02' E 120°23'0 0.0
2015-Jan-30 22:33N 32°02' E 120°23'0 0.0
2015-Jan-30 21:33N 32°02' E 120°23'0 0.0
2015-Jan-30 20:33N 32°02' E 120°23'0 0.0
2015-Jan-30 19:34N 32°02' E 120°23'0 0.0
2015-Jan-30 18:33N 32°02' E 120°23'0 0.1
2015-Jan-30 17:33N 32°02' E 120°23'0 0.1
2015-Jan-30 16:33N 32°02' E 120°23'0 0.1
2015-Jan-30 15:33N 32°02' E 120°23'0 0.0
2015-Jan-30 14:33N 32°02' E 120°23'0 0.0
2015-Jan-30 13:33N 32°02' E 120°23'6765.3
2015-Jan-30 12:32N 31°20' E 121°25'679641.4
2015-Jan-30 12:31N 32°02' E 120°23'0 0.0
2015-Jan-30 11:33N 32°02' E 120°23'682347.7
2015-Jan-30 11:32N 31°22' E 121°28'6869.5
2015-Jan-30 10:33N 32°02' E 120°23'6913029.8
2015-Jan-30 10:33N 31°22' E 121°30'6969.3
2015-Jan-30 09:33N 32°02' E 120°24'0 0.0
2015-Jan-30 08:33N 32°02' E 120°24'0 0.0
2015-Jan-30 07:33N 32°02' E 120°24'75155.8
2015-Jan-30 07:04N 31°12' E 121°30'75146.3
2015-Jan-30 06:33N 32°02' E 120°24'7538625.0
2015-Jan-30 06:33N 31°10' E 121°28'7766.9
2015-Jan-30 05:24N 31°57' E 120°15'969.3
2015-Jan-30 05:16N 32°02' E 120°24'3 4.9
2015-Jan-30 04:33N 31°59' E 120°21'312489.1
2015-Jan-30 04:33N 32°02' E 120°24'4 3.5
2015-Jan-30 03:33N 32°02' E 120°28'42110.0
2015-Jan-30 03:33N 32°02' E 120°24'9 9.5
2015-Jan-30 02:33N 32°01' E 120°35'9353.7
2015-Jan-30 02:32N 32°02' E 120°24'0 0.0
2015-Jan-30 01:33N 32°02' E 120°24'0 0.0
2015-Jan-30 00:33N 32°02' E 120°24'2254.0
2015-Jan-30 00:08N 31°60' E 120°50'2238.3
2015-Jan-29 23:33N 32°02' E 120°24'3782844.1
2015-Jan-29 23:25N 25°45' E 119°39'3785130.5
2015-Jan-29 23:21N 31°58' E 120°51'2329.4
2015-Jan-29 22:33N 32°02' E 120°24'0 0.0
2015-Jan-29 21:34N 32°02' E 120°24'0 0.0
2015-Jan-29 20:33N 32°02' E 120°24'0 0.0
2015-Jan-29 19:32N 32°02' E 120°24'0 0.0
2015-Jan-29 18:33N 32°02' E 120°24'0 0.0
2015-Jan-29 17:32N 32°02' E 120°24'0 0.0
2015-Jan-29 16:33N 32°02' E 120°24'2350.8
2015-Jan-29 16:06N 31°58' E 120°51'2342.8
2015-Jan-29 15:33N 32°02' E 120°24'23147.6
2015-Jan-29 15:24N 31°58' E 120°51'2327.7
2015-Jan-29 14:33N 32°02' E 120°24'2389.3
2015-Jan-29 14:18N 31°58' E 120°51'0 0.0
2015-Jan-29 13:18N 31°58' E 120°51'2313.3
2015-Jan-29 11:33N 32°02' E 120°24'0 0.0
2015-Jan-29 10:33N 32°02' E 120°24'4303197.7
2015-Jan-29 10:25N 38°54' E 117°55'7 7.6
2015-Jan-29 09:31N 38°49' E 117°49'43747699.8
2015-Jan-29 09:30N 31°58' E 120°51'437400.5
2015-Jan-29 08:25N 38°49' E 117°49'4372663.2
2015-Jan-29 08:15N 31°58' E 120°51'23257.4
2015-Jan-29 08:09N 32°02' E 120°24'0 0.0
2015-Jan-29 07:33N 32°02' E 120°24'0 0.0
2015-Jan-29 06:32N 32°02' E 120°24'4261512.1
2015-Jan-29 06:15N 38°49' E 117°49'426604.4
2015-Jan-29 05:33N 32°02' E 120°24'4261223.3
2015-Jan-29 05:12N 38°49' E 117°48'0 0.6
2015-Jan-29 04:33N 38°49' E 117°48'42673099.9
2015-Jan-29 04:33N 32°02' E 120°24'4651241.4
2015-Jan-29 04:10N 24°30' E 118°18'462750.0
2015-Jan-29 03:33N 31°59' E 120°20'811343.4
2015-Jan-29 03:30N 31°00' E 121°26'42563791.5
2015-Jan-29 03:29N 24°31' E 118°14'85911940.0
2015-Jan-29 03:25N 38°49' E 117°49'430498.5
2015-Jan-29 02:33N 31°56' E 120°15'4301518.4
2015-Jan-29 02:16N 38°49' E 117°49'8561196.7
2015-Jan-29 01:33N 24°34' E 118°11'85645307.2
2015-Jan-29 01:32N 38°49' E 117°48'856872.5
2015-Jan-29 00:33N 24°34' E 118°11'42217665.2
2015-Jan-29 00:32N 30°60' E 121°24'5021516.7
2015-Jan-29 00:12N 38°49' E 117°49'711.3
2015-Jan-28 23:32N 38°55' E 117°55'50311750.9
2015-Jan-28 23:30N 31°03' E 121°28'4992651.6
2015-Jan-28 23:19N 38°50' E 117°52'9788381.4
2015-Jan-28 23:12N 22°58' E 113°32'6 9.3
2015-Jan-28 22:33N 23°03' E 113°30'645464485.7
2015-Jan-28 22:33N 31°09' E 121°27'431776550.1
2015-Jan-28 22:33N 24°34' E 118°11'274273.1
2015-Jan-28 21:33N 23°06' E 113°27'0 0.0
2015-Jan-28 20:33N 23°06' E 113°27'0 0.0
2015-Jan-28 19:33N 23°06' E 113°27'65642175.3
2015-Jan-28 19:33N 31°21' E 121°30'4451222.6
2015-Jan-28 19:11N 24°32' E 118°12'275443.4
2015-Jan-28 18:33N 23°06' E 113°27'27234988.7
2015-Jan-28 18:33N 24°26' E 118°11'4494779.8
2015-Jan-28 18:27N 31°21' E 121°26'48154.3
2015-Jan-28 18:09N 31°58' E 120°51'6621120.3
2015-Jan-28 17:33N 23°06' E 113°27'66211134.6
2015-Jan-28 17:30N 31°58' E 120°51'4779432.0
2015-Jan-28 17:27N 24°25' E 118°01'263295.9
2015-Jan-28 16:33N 23°06' E 113°27'9764275.4
2015-Jan-28 16:20N 38°54' E 117°56'44014016.5
2015-Jan-28 16:18N 31°58' E 120°51'662887.9
2015-Jan-28 15:33N 23°06' E 113°27'66212220.6
2015-Jan-28 15:30N 31°58' E 120°51'662703.8
2015-Jan-28 14:33N 23°06' E 113°27'66211135.4
2015-Jan-28 14:30N 31°58' E 120°51'662703.1
2015-Jan-28 13:33N 23°06' E 113°27'6632528.2
2015-Jan-28 13:17N 31°59' E 120°51'663900.9
2015-Jan-28 12:33N 23°06' E 113°27'9852726.8
2015-Jan-28 12:12N 39°02' E 118°02'9851516.1
2015-Jan-28 11:33N 23°06' E 113°27'0 0.0
2015-Jan-28 10:33N 23°06' E 113°27'1 1.0
2015-Jan-28 09:33N 23°05' E 113°26'0 0.5
2015-Jan-28 08:33N 23°05' E 113°26'6631872.7
2015-Jan-28 08:12N 31°58' E 120°50'49777.9
2015-Jan-28 08:08N 31°23' E 121°30'6581139.4
2015-Jan-28 07:33N 23°05' E 113°26'65881663.3
2015-Jan-28 07:33N 31°21' E 121°33'658655.7
2015-Jan-28 06:33N 23°05' E 113°26'6632557.4
2015-Jan-28 06:17N 32°02' E 120°44'663911.0
2015-Jan-28 05:34N 23°05' E 113°26'0 0.0
2015-Jan-28 04:33N 23°05' E 113°26'97118107.5
2015-Jan-28 04:30N 38°49' E 117°48'41851897.1
2015-Jan-28 04:29N 32°04' E 119°56'640685.4
2015-Jan-28 03:33N 23°05' E 113°26'638328272.5
2015-Jan-28 03:33N 31°58' E 120°02'4255691.1
2015-Jan-28 03:29N 38°49' E 117°48'430467.3
2015-Jan-28 02:34N 31°56' E 120°12'641164922.4
2015-Jan-28 02:33N 23°05' E 113°26'9713290.5
2015-Jan-28 02:16N 38°49' E 117°48'428611.1
2015-Jan-28 01:34N 31°60' E 120°22'649146134.1
2015-Jan-28 01:33N 23°05' E 113°26'97134263.6
2015-Jan-28 01:32N 38°49' E 117°50'602315566.7
2015-Jan-28 01:08N 33°37' W 117°55'613010558.2
2015-Jan-28 00:34N 32°04' E 120°30'65898629.9
2015-Jan-28 00:33N 23°05' E 113°26'6659201.8
2015-Jan-28 00:29N 32°04' E 120°45'4303635.9
2015-Jan-28 00:22N 38°49' E 117°49'432538.3
2015-Jan-27 23:33N 32°00' E 120°39'65984692.4
2015-Jan-27 23:33N 23°05' E 113°26'97116722.0
2015-Jan-27 23:30N 38°49' E 117°49'9711036.5
2015-Jan-27 22:33N 23°05' E 113°26'664265477.3
2015-Jan-27 22:33N 31°60' E 120°50'664658.0
2015-Jan-27 21:33N 23°05' E 113°26'66059435.5
2015-Jan-27 21:32N 31°53' E 120°54'671.7
2015-Jan-27 21:27N 31°58' E 120°50'1314.4
2015-Jan-27 20:34N 31°47' E 120°58'658236892.3
2015-Jan-27 20:33N 23°05' E 113°26'66311470.9
2015-Jan-27 20:30N 31°58' E 120°50'48407.8
2015-Jan-27 20:23N 31°21' E 121°27'655795.0
2015-Jan-27 19:33N 23°05' E 113°26'66114078.4
2015-Jan-27 19:31N 31°45' E 121°05'241546.0
2015-Jan-27 19:30N 32°00' E 120°43'551405.6
2015-Jan-27 19:27N 31°22' E 121°30'2527.9
2015-Jan-27 18:33N 31°41' E 121°10'37530.8
2015-Jan-27 18:29N 32°01' E 120°33'4346.4
2015-Jan-27 17:34N 31°38' E 121°16'661237912.2
2015-Jan-27 17:33N 23°05' E 113°26'651167449.0
2015-Jan-27 17:33N 32°00' E 120°24'4292899.9
2015-Jan-27 17:24N 38°50' E 117°49'469553.3
2015-Jan-27 16:33N 31°33' E 121°20'6602375672.8
2015-Jan-27 16:33N 23°05' E 113°26'661662.6
2015-Jan-27 15:34N 31°30' E 121°26'661139926.2
2015-Jan-27 15:33N 23°05' E 113°26'660663.6
2015-Jan-27 14:34N 31°26' E 121°30'6601188425.5
2015-Jan-27 14:33N 23°05' E 113°26'0 0.0
2015-Jan-27 13:33N 23°05' E 113°26'66295279.4
2015-Jan-27 13:33N 31°23' E 121°36'4 4.4
2015-Jan-27 12:34N 31°20' E 121°40'662216557.8
2015-Jan-27 12:33N 23°05' E 113°26'662663.7
2015-Jan-27 11:34N 31°20' E 121°40'66266170.9
2015-Jan-27 11:33N 23°05' E 113°26'0 0.0
2015-Jan-27 10:33N 23°05' E 113°26'66210051.1
2015-Jan-27 10:30N 31°20' E 121°40'662707.3
2015-Jan-27 09:33N 23°05' E 113°26'66251785.6
2015-Jan-27 09:33N 31°20' E 121°40'4943615.2
2015-Jan-27 09:24N 38°56' E 117°49'9771147.0
2015-Jan-27 08:33N 23°05' E 113°26'66227699.3
2015-Jan-27 08:32N 31°20' E 121°40'662677.3
2015-Jan-27 07:33N 23°05' E 113°26'66229051.8
2015-Jan-27 07:32N 31°20' E 121°40'662676.8
2015-Jan-27 06:33N 23°05' E 113°26'66230155.0
2015-Jan-27 06:32N 31°20' E 121°40'662677.0
2015-Jan-27 05:33N 23°05' E 113°26'662183249.7
2015-Jan-27 05:33N 31°20' E 121°40'662666.9
2015-Jan-27 04:34N 23°05' E 113°26'66215988.2
2015-Jan-27 04:31N 31°20' E 121°40'4991563.3
2015-Jan-27 04:12N 38°59' E 117°43'9791529.8
2015-Jan-27 03:33N 23°05' E 113°26'662198614.0
2015-Jan-27 03:33N 31°22' E 121°38'662649.8
2015-Jan-27 02:32N 23°05' E 113°27'66324591.5
2015-Jan-27 02:31N 31°22' E 121°39'0 0.0
2015-Jan-27 01:34N 31°22' E 121°39'663113589.1
2015-Jan-27 01:33N 23°05' E 113°27'6563655.7
2015-Jan-27 01:22N 32°00' E 120°34'655798.5
2015-Jan-27 00:33N 23°06' E 113°27'655117819.3
2015-Jan-27 00:33N 32°01' E 120°32'691781.0
2015-Jan-27 00:31N 31°22' E 121°39'0 0.0
2015-Jan-26 23:34N 31°22' E 121°39'696347.7
2015-Jan-26 23:33N 32°01' E 120°32'655660.4
2015-Jan-26 22:33N 23°06' E 113°27'66214098.0
2015-Jan-26 22:31N 31°22' E 121°39'691366.8
2015-Jan-26 22:28N 32°01' E 120°32'655711.7
2015-Jan-26 21:32N 23°06' E 113°27'66221464.9
2015-Jan-26 21:31N 31°22' E 121°39'662694.9
2015-Jan-26 20:33N 23°06' E 113°27'65526184.1
2015-Jan-26 20:32N 32°01' E 120°31'693123.0
2015-Jan-26 20:31N 31°22' E 121°39'0 0.0
2015-Jan-26 19:33N 31°22' E 121°39'745089.6
2015-Jan-26 19:33N 32°01' E 120°25'738007.1
2015-Jan-26 19:32N 31°17' E 121°34'4541269.1
2015-Jan-26 19:11N 24°24' E 117°58'5 8.2
2015-Jan-26 18:33N 24°25' E 118°03'45581848.5
2015-Jan-26 18:33N 31°21' E 121°32'723608.9
2015-Jan-26 18:32N 31°58' E 120°19'74638.9
2015-Jan-26 18:25N 31°22' E 121°35'459533.9
2015-Jan-26 17:33N 24°21' E 118°11'45848486.0
2015-Jan-26 17:33N 31°23' E 121°30'448.2
2015-Jan-26 17:27N 31°22' E 121°35'7 7.9
2015-Jan-26 16:33N 31°26' E 121°28'78571.7
2015-Jan-26 16:33N 31°22' E 121°35'456410415.7
2015-Jan-26 16:33N 24°21' E 118°18'459461.5
2015-Jan-26 15:34N 31°30' E 121°23'132952.6
2015-Jan-26 15:33N 31°22' E 121°35'0 0.0
2015-Jan-26 14:33N 31°22' E 121°35'20187.9
2015-Jan-26 14:27N 31°35' E 121°18'2021.9
2015-Jan-26 13:33N 31°22' E 121°35'251243.7
2015-Jan-26 13:32N 31°39' E 121°13'2524.2
2015-Jan-26 12:29N 31°22' E 121°35'2 1.7
2015-Jan-26 11:33N 31°24' E 121°36'7979.4
2015-Jan-26 10:33N 31°55' E 120°11'7920336.1
2015-Jan-26 10:33N 31°24' E 121°36'420423.9
2015-Jan-26 09:33N 24°48' E 118°57'42048752.8
2015-Jan-26 09:33N 31°24' E 121°36'791664.8
2015-Jan-26 09:30N 31°55' E 120°11'7975.2
2015-Jan-26 08:27N 31°24' E 121°36'0 0.0
2015-Jan-26 07:33N 31°24' E 121°36'0 0.0
2015-Jan-26 06:33N 31°24' E 121°36'39820195.6
2015-Jan-26 06:32N 25°06' E 119°14'398379.0
2015-Jan-26 05:29N 31°24' E 121°36'0 0.1
2015-Jan-26 04:32N 31°24' E 121°36'0 0.0
2015-Jan-26 03:33N 31°24' E 121°36'27495.6
2015-Jan-26 03:30N 30°59' E 121°23'2727.2
2015-Jan-26 02:31N 31°24' E 121°36'0 0.0
2015-Jan-26 01:31N 31°24' E 121°36'0 0.0
2015-Jan-26 00:31N 31°24' E 121°36'0 0.0
2015-Jan-25 23:32N 31°24' E 121°36'761603.7
2015-Jan-25 23:29N 31°57' E 120°16'7146.0
2015-Jan-25 23:26N 31°55' E 120°08'1415.6
2015-Jan-25 22:33N 31°60' E 120°23'14325.3
2015-Jan-25 22:31N 31°55' E 120°08'81146130.3
2015-Jan-25 22:31N 31°24' E 121°36'3542804.5
2015-Jan-25 22:23N 25°45' E 119°39'379456.8
2015-Jan-25 21:33N 32°02' E 120°31'6720246.5
2015-Jan-25 21:33N 31°24' E 121°36'0 0.0
2015-Jan-25 20:33N 31°24' E 121°36'62111975.6
2015-Jan-25 20:33N 32°00' E 120°37'25202.1
2015-Jan-25 20:26N 31°55' E 120°08'0 0.0
2015-Jan-25 19:32N 31°55' E 120°08'814174.5
2015-Jan-25 19:31N 31°24' E 121°36'58369.2
2015-Jan-25 19:22N 32°01' E 120°44'1 0.9
2015-Jan-25 18:33N 32°01' E 120°45'3112587.1
2015-Jan-25 18:33N 31°55' E 120°08'8117189.8
2015-Jan-25 18:33N 31°24' E 121°36'0 0.0
2015-Jan-25 17:31N 31°24' E 121°36'58628.7
2015-Jan-25 17:25N 32°01' E 120°45'5866.1
2015-Jan-25 16:33N 31°24' E 121°36'58619.8
2015-Jan-25 16:27N 32°01' E 120°45'31155.6
2015-Jan-25 16:15N 31°55' E 120°08'81115.3
2015-Jan-25 15:33N 31°24' E 121°36'585064.0
2015-Jan-25 15:32N 32°01' E 120°45'31155.2
2015-Jan-25 15:20N 31°55' E 120°08'81104.3
2015-Jan-25 14:33N 31°24' E 121°36'0 0.0
2015-Jan-25 13:31N 31°24' E 121°36'581235.8
2015-Jan-25 13:28N 32°01' E 120°45'21314.1
2015-Jan-25 13:24N 31°58' E 120°20'7487.0
2015-Jan-25 12:33N 31°24' E 121°36'573712.2
2015-Jan-25 12:32N 32°01' E 120°46'5756.0
2015-Jan-25 11:32N 31°24' E 121°36'50455.9
2015-Jan-25 11:25N 31°57' E 120°52'5058.0
2015-Jan-25 10:33N 31°24' E 121°36'0 0.1
2015-Jan-25 09:32N 31°24' E 121°36'0 0.0
2015-Jan-25 08:33N 31°24' E 121°36'0 0.0
2015-Jan-25 07:30N 31°24' E 121°36'0 0.0
2015-Jan-25 06:33N 31°24' E 121°36'0 0.0
2015-Jan-25 05:32N 31°24' E 121°36'81650.5
2015-Jan-25 05:25N 31°55' E 120°08'8194.6
2015-Jan-25 04:33N 31°24' E 121°36'84268.1
2015-Jan-25 04:14N 31°57' E 120°05'84103.4
2015-Jan-25 03:25N 31°24' E 121°36'90288.4
2015-Jan-25 03:07N 31°59' E 119°59'89152.6
2015-Jan-25 02:32N 31°23' E 121°34'0 0.0
2015-Jan-25 01:33N 31°23' E 121°34'0 0.1
2015-Jan-25 00:33N 31°23' E 121°34'2 1.6
2015-Jan-24 23:33N 31°24' E 121°36'5129.2
2015-Jan-24 23:31N 31°23' E 121°30'9 9.8
2015-Jan-24 22:33N 31°20' E 121°41'134629.1
2015-Jan-24 22:33N 31°21' E 121°26'1312.7
2015-Jan-24 21:32N 31°20' E 121°41'5 5.2
2015-Jan-24 20:33N 31°22' E 121°36'6 6.2
2015-Jan-24 19:34N 31°26' E 121°29'61285.5
2015-Jan-24 19:33N 31°21' E 121°26'9 8.6
2015-Jan-24 18:33N 31°29' E 121°25'7 6.7
2015-Jan-24 17:34N 31°34' E 121°19'6 5.9
2015-Jan-24 16:30N 31°38' E 121°14'0 0.0
2015-Jan-24 15:33N 31°38' E 121°14'0 0.0
2015-Jan-24 14:33N 31°38' E 121°14'16 5.2
2015-Jan-24 11:33N 31°47' E 120°58'7 6.8
2015-Jan-24 10:33N 31°52' E 120°53'6 6.0
2015-Jan-24 09:33N 31°57' E 120°51'5 4.8
2015-Jan-24 08:33N 32°00' E 120°47'54410.8
2015-Jan-24 08:25N 31°22' E 121°30'5866.6
2015-Jan-24 07:33N 31°60' E 120°39'58199.1
2015-Jan-24 07:16N 31°21' E 121°31'6795.1
2015-Jan-24 06:33N 32°04' E 120°31'12588.6
2015-Jan-24 06:32N 32°02' E 120°45'57734.2
2015-Jan-24 06:28N 31°21' E 121°31'0 0.0
2015-Jan-24 05:33N 31°21' E 121°31'7084217.3
2015-Jan-24 05:33N 31°59' E 120°22'68201.4
2015-Jan-24 05:13N 31°21' E 121°27'73110.2
2015-Jan-24 04:33N 31°56' E 120°11'76736.9
2015-Jan-24 04:27N 31°21' E 121°31'210.6
2015-Jan-24 04:16N 31°23' E 121°30'84117.6
2015-Jan-24 03:33N 31°59' E 120°00'8638604.6
2015-Jan-24 03:33N 31°21' E 121°31'9493.8
2015-Jan-24 02:33N 32°07' E 119°54'9416843.3
2015-Jan-24 02:33N 31°21' E 121°31'0 0.2
2015-Jan-24 01:32N 31°21' E 121°31'9971566.9
2015-Jan-24 01:32N 32°15' E 119°52'6514234.9
2015-Jan-24 01:23N 22°58' E 113°32'652789.5
2015-Jan-24 00:33N 32°20' E 119°47'648333185.6
2015-Jan-24 00:33N 23°05' E 113°27'65633275.7
2015-Jan-24 00:32N 31°21' E 121°31'656669.4
2015-Jan-23 23:33N 23°06' E 113°27'65629171.4
2015-Jan-23 23:32N 31°21' E 121°31'48960729.5
2015-Jan-23 23:32N 38°56' E 117°50'9771003.0
2015-Jan-23 22:33N 23°06' E 113°27'65631089.1
2015-Jan-23 22:32N 31°21' E 121°31'1119061.2
2015-Jan-23 22:31N 32°11' E 119°34'635657.4
2015-Jan-23 21:33N 23°06' E 113°27'65629910.3
2015-Jan-23 21:32N 31°21' E 121°31'0 0.0
2015-Jan-23 20:32N 31°21' E 121°31'65641453.8
2015-Jan-23 20:31N 23°06' E 113°27'0 0.4
2015-Jan-23 19:33N 23°06' E 113°26'65722298.6
2015-Jan-23 19:32N 31°21' E 121°31'133656.3
2015-Jan-23 19:19N 32°15' E 119°07'626816.8
2015-Jan-23 18:33N 23°06' E 113°27'6605078.6
2015-Jan-23 18:26N 31°39' E 121°14'23222.1
2015-Jan-23 18:19N 31°21' E 121°31'656855.5
2015-Jan-23 17:33N 23°06' E 113°27'65922188.0
2015-Jan-23 17:32N 31°35' E 121°19'66333.0
2015-Jan-23 17:20N 31°58' E 120°06'8110008.6
2015-Jan-23 17:19N 31°21' E 121°31'656859.8
2015-Jan-23 16:33N 23°06' E 113°27'660237497.2
2015-Jan-23 16:33N 31°31' E 121°24'11304.3
2015-Jan-23 16:31N 31°21' E 121°31'77295.5
2015-Jan-23 16:16N 31°57' E 120°11'3 3.6
2015-Jan-23 15:34N 31°57' E 120°14'6421155567.1
2015-Jan-23 15:33N 23°06' E 113°27'66042412.1
2015-Jan-23 15:33N 31°28' E 121°28'758.5
2015-Jan-23 15:25N 31°21' E 121°31'481349.6
2015-Jan-23 15:23N 31°56' E 120°52'927450509.3
2015-Jan-23 15:12N 41°23' W 071°27'944714780.7
2015-Jan-23 14:34N 23°06' E 113°27'65925254.9
2015-Jan-23 14:32N 31°26' E 121°30'696727.6
2015-Jan-23 14:31N 31°58' E 120°18'72658.7
2015-Jan-23 14:25N 31°21' E 121°31'54219.1
2015-Jan-23 14:10N 32°00' E 120°46'6621082.5
2015-Jan-23 13:33N 23°06' E 113°27'64875307.7
2015-Jan-23 13:33N 31°60' E 120°21'705997.8
2015-Jan-23 13:32N 31°21' E 121°30'015.9
2015-Jan-23 13:30N 31°21' E 121°31'656691.3
2015-Jan-23 12:33N 23°06' E 113°27'652123610.8
2015-Jan-23 12:33N 32°02' E 120°26'681419.0
2015-Jan-23 12:30N 31°21' E 121°31'615768.9
2015-Jan-23 12:30N 31°60' E 120°35'656700.5
2015-Jan-23 11:34N 23°06' E 113°27'65527438.1
2015-Jan-23 11:32N 32°02' E 120°33'641981.0
2015-Jan-23 11:30N 31°21' E 121°31'652228.4
2015-Jan-23 11:28N 32°01' E 120°31'655715.6
2015-Jan-23 10:34N 23°06' E 113°26'65313511.1
2015-Jan-23 10:31N 32°02' E 120°27'686954.8
2015-Jan-23 10:30N 31°21' E 121°31'96606.0
2015-Jan-23 10:21N 29°51' E 122°08'618787.9
2015-Jan-23 09:33N 23°06' E 113°26'6192228842.9
2015-Jan-23 09:33N 29°56' E 122°05'15110276.0
2015-Jan-23 09:33N 32°01' E 120°25'21165.0
2015-Jan-23 09:25N 31°60' E 120°50'52916.7
2015-Jan-23 09:22N 31°21' E 121°31'657819.6
2015-Jan-23 08:34N 23°06' E 113°26'64949709.0
2015-Jan-23 08:33N 31°59' E 120°23'691453.0
2015-Jan-23 08:30N 31°21' E 121°31'0 0.0
2015-Jan-23 07:33N 31°21' E 121°31'657139040.1
2015-Jan-23 07:33N 23°06' E 113°26'0 0.0
2015-Jan-23 06:33N 23°06' E 113°26'6574125.1
2015-Jan-23 06:24N 31°21' E 121°31'0 0.0
2015-Jan-23 05:33N 31°21' E 121°31'65784417.7
2015-Jan-23 05:33N 23°06' E 113°26'6602576.0
2015-Jan-23 05:18N 31°35' E 121°19'660895.2
2015-Jan-23 04:33N 23°06' E 113°26'6579807.5
2015-Jan-23 04:29N 31°21' E 121°31'111250.3
2015-Jan-23 04:29N 31°31' E 121°24'1112.3
2015-Jan-23 03:33N 31°21' E 121°31'65738748.4
2015-Jan-23 03:32N 23°06' E 113°26'66091366.0
2015-Jan-23 03:31N 31°27' E 121°29'5153.3
2015-Jan-23 02:33N 30°41' E 121°56'453082.6
2015-Jan-23 02:33N 31°21' E 121°31'65687472.7
2015-Jan-23 02:32N 23°05' E 113°28'9 7.2
2015-Jan-23 01:21N 22°58' E 113°32'659395641.2
2015-Jan-23 01:21N 31°21' E 121°30'45317.5
2015-Jan-23 01:12N 30°48' E 122°06'4559.1
2015-Jan-23 00:26N 31°21' E 121°30'0 0.0
2015-Jan-22 23:32N 31°21' E 121°30'57225.9
2015-Jan-22 23:17N 32°04' E 120°45'5776.7
2015-Jan-22 22:32N 31°21' E 121°30'6104211304.5
2015-Jan-22 22:30N 33°37' W 117°55'61046426.8
2015-Jan-22 21:33N 31°23' E 121°30'222586.7
2015-Jan-22 21:33N 31°10' E 121°51'20887.2
2015-Jan-22 21:32N 31°21' E 121°30'6104327995.2
2015-Jan-22 21:30N 33°37' W 117°55'6148110656.4
2015-Jan-22 21:27N 31°57' E 120°15'7 7.5
2015-Jan-22 20:33N 31°60' E 120°22'8226696.1
2015-Jan-22 20:33N 31°17' E 121°44'12632.9
2015-Jan-22 20:32N 31°21' E 121°31'5 5.4
2015-Jan-22 19:33N 31°22' E 121°37'5175.4
2015-Jan-22 19:32N 31°21' E 121°31'6916447.7
2015-Jan-22 19:31N 32°01' E 120°24'5 4.8
2015-Jan-22 18:33N 32°02' E 120°30'643452.9
2015-Jan-22 18:32N 31°25' E 121°31'4441.1
2015-Jan-22 18:31N 31°21' E 121°31'0 0.0
2015-Jan-22 17:31N 31°21' E 121°31'7944.9
2015-Jan-22 17:31N 31°28' E 121°27'59152.8
2015-Jan-22 17:08N 32°02' E 120°31'5493.1
2015-Jan-22 16:33N 31°30' E 121°23'11411.7
2015-Jan-22 16:31N 31°21' E 121°31'657808.3
2015-Jan-22 16:31N 32°02' E 120°31'68246416.3
2015-Jan-22 16:31N 31°19' E 121°33'4 4.7
2015-Jan-22 15:33N 31°22' E 121°30'643491.7
2015-Jan-22 15:32N 32°02' E 120°31'6510176.7
2015-Jan-22 15:31N 31°21' E 121°30'19556.7
2015-Jan-22 15:29N 31°36' E 121°17'1718.3
2015-Jan-22 14:33N 31°25' E 121°31'393.4
2015-Jan-22 14:31N 31°21' E 121°30'652690.5
2015-Jan-22 14:30N 32°02' E 120°31'4376847.0
2015-Jan-22 14:26N 39°02' E 118°02'437501.9
2015-Jan-22 13:33N 32°02' E 120°31'574037.8
2015-Jan-22 13:33N 31°29' E 121°25'8272.5
2015-Jan-22 13:31N 31°21' E 121°30'610498105.6
2015-Jan-22 13:27N 33°37' W 117°55'61076842.3
2015-Jan-22 12:33N 31°33' E 121°20'512619.5
2015-Jan-22 12:32N 32°02' E 120°31'652659.8
2015-Jan-22 12:31N 31°21' E 121°30'47555.0
2015-Jan-22 12:26N 31°55' E 120°52'61176957.2
2015-Jan-22 11:33N 33°37' W 117°55'6104138211.7
2015-Jan-22 11:30N 31°21' E 121°30'22324.5
2015-Jan-22 11:26N 31°38' E 121°14'2223.8
2015-Jan-22 10:30N 31°21' E 121°30'59314.8
2015-Jan-22 10:19N 31°60' E 120°37'4405694.6
2015-Jan-22 10:14N 38°60' E 117°57'6 8.0
2015-Jan-22 09:33N 38°55' E 117°55'43281847.3
2015-Jan-22 09:33N 32°03' E 120°34'631471.7
2015-Jan-22 09:30N 31°21' E 121°31'533534.9
2015-Jan-22 09:29N 32°01' E 120°49'213927.0
2015-Jan-22 09:29N 31°46' E 121°06'457490.1
2015-Jan-22 08:33N 38°55' E 117°53'43032927.9
2015-Jan-22 08:32N 32°04' E 120°28'682284.8
2015-Jan-22 08:30N 31°21' E 121°31'490515.5
2015-Jan-22 07:33N 38°60' E 117°57'6011118248.7
2015-Jan-22 07:30N 33°37' W 117°55'61043662589.5
2015-Jan-22 07:30N 31°21' E 121°31'61046436.9
2015-Jan-22 06:33N 33°37' W 117°55'6104110429.8
2015-Jan-22 06:30N 31°21' E 121°31'0 0.0
2015-Jan-22 05:30N 31°21' E 121°31'0 0.0
2015-Jan-22 04:32N 31°21' E 121°31'0 0.0
2015-Jan-22 03:29N 31°21' E 121°31'0 0.1
2015-Jan-22 02:32N 31°21' E 121°30'0 0.0
2015-Jan-22 01:29N 31°21' E 121°30'0 0.0
2015-Jan-22 00:29N 31°21' E 121°30'862143.8
2015-Jan-22 00:26N 31°60' E 119°60'6 6.8
2015-Jan-21 23:31N 31°57' E 120°06'802644.4
2015-Jan-21 23:29N 31°21' E 121°30'75117.6
2015-Jan-21 22:50N 31°56' E 120°12'751163.9
2015-Jan-21 22:46N 31°21' E 121°30'754641.5
2015-Jan-21 22:45N 31°56' E 120°13'75928.3
2015-Jan-21 22:41N 31°21' E 121°30'74573.0
2015-Jan-21 22:33N 31°56' E 120°14'741022.1
2015-Jan-21 22:29N 31°21' E 121°30'7075.7
2015-Jan-21 21:33N 32°00' E 120°22'691071.8
2015-Jan-21 21:29N 31°23' E 121°30'195.8
2015-Jan-21 21:28N 31°21' E 121°30'934510139.4
2015-Jan-21 20:33N 41°22' W 071°30'9252724035.7
2015-Jan-21 20:32N 32°04' E 120°31'67988.2
2015-Jan-21 20:28N 31°21' E 121°31'5963.8
2015-Jan-21 19:33N 32°00' E 120°39'59709.6
2015-Jan-21 19:28N 31°21' E 121°31'659118606.3
2015-Jan-21 19:28N 22°59' E 113°31'9454709071.1
2015-Jan-21 19:27N 41°14' W 071°15'944410519.4
2015-Jan-21 18:33N 23°06' E 113°27'6567137.1
2015-Jan-21 18:28N 31°21' E 121°31'522011.2
2015-Jan-21 18:26N 31°60' E 120°49'663748.8
2015-Jan-21 17:33N 23°06' E 113°27'66013354.5
2015-Jan-21 17:30N 31°54' E 120°53'461147.9
2015-Jan-21 17:28N 31°21' E 121°31'656720.5
2015-Jan-21 16:33N 23°06' E 113°27'6567073.0
2015-Jan-21 16:28N 31°21' E 121°31'39541.6
2015-Jan-21 16:23N 31°48' E 120°56'  
Track history (hours):
 
Tides and Currents Weather Stations Pressure Air Temp Water Temp Dewpoint Dewpoint Depression Visibility Wind Speed Wind Dir Waves Ship Positions

Paulistana II

Last reported at 2015-Jan-31 15:33 UTC. Time now 2015-Jan-31 16:16 UTC.
Position N 31°52' E 120°53'.

Length 6 m.

Type: Pollution control. MMSI: 316014038.

Date/timePositionNaut miles runAvg speedWind from/ knotsBaromVisibWave heightAir tempDewpointWater temp
2015-Jan-31 15:33N 31°52' E 120°53'660148481.4
2015-Jan-31 15:33N 23°01' E 113°32'657236690.8
2015-Jan-31 15:33N 31°22' E 121°30'5050.7
2015-Jan-31 14:33N 31°59' E 120°50'491894.1
2015-Jan-31 14:32N 31°21' E 121°26'5657.3
2015-Jan-31 13:33N 31°60' E 120°39'65936480.4
2015-Jan-31 13:32N 23°01' E 113°32'658669.8
2015-Jan-31 12:33N 32°04' E 120°30'9 8.7
2015-Jan-31 11:33N 31°59' E 120°21'69387.5
2015-Jan-31 11:23N 31°23' E 121°31'7591.2
2015-Jan-31 10:33N 31°56' E 120°11'1313.1
2015-Jan-31 09:33N 31°59' E 120°27'2112772.2
2015-Jan-31 09:33N 31°58' E 120°01'8 7.8
2015-Jan-31 08:33N 32°04' E 119°56'274009.1
2015-Jan-31 08:33N 31°59' E 120°26'0 0.3
2015-Jan-31 07:33N 31°59' E 120°27'311478.5
2015-Jan-31 07:32N 32°11' E 119°53'3131.8
2015-Jan-31 06:33N 31°59' E 120°26'36722.9
2015-Jan-31 06:30N 32°18' E 119°50'2076.0
2015-Jan-31 06:15N 31°59' E 119°59'2333.6
2015-Jan-31 05:33N 31°59' E 120°26'1 1.3
2015-Jan-31 04:33N 31°58' E 120°25'3 2.8
2015-Jan-31 03:22N 32°01' E 120°23'2 1.9
2015-Jan-31 02:33N 32°02' E 120°24'0 0.1
2015-Jan-31 01:33N 32°02' E 120°24'0 0.1
2015-Jan-31 00:33N 32°02' E 120°24'0 0.2
2015-Jan-30 23:33N 32°02' E 120°23'0 0.0
2015-Jan-30 22:33N 32°02' E 120°23'0 0.0
2015-Jan-30 21:33N 32°02' E 120°23'0 0.0
2015-Jan-30 20:33N 32°02' E 120°23'0 0.0
2015-Jan-30 19:34N 32°02' E 120°23'0 0.0
2015-Jan-30 18:33N 32°02' E 120°23'0 0.1
2015-Jan-30 17:33N 32°02' E 120°23'0 0.1
2015-Jan-30 16:33N 32°02' E 120°23'0 0.1
2015-Jan-30 15:33N 32°02' E 120°23'0 0.0
2015-Jan-30 14:33N 32°02' E 120°23'0 0.0
2015-Jan-30 13:33N 32°02' E 120°23'6765.3
2015-Jan-30 12:32N 31°20' E 121°25'679641.4
2015-Jan-30 12:31N 32°02' E 120°23'0 0.0
2015-Jan-30 11:33N 32°02' E 120°23'682347.7
2015-Jan-30 11:32N 31°22' E 121°28'6869.5
2015-Jan-30 10:33N 32°02' E 120°23'6913029.8
2015-Jan-30 10:33N 31°22' E 121°30'6969.3
2015-Jan-30 09:33N 32°02' E 120°24'0 0.0
2015-Jan-30 08:33N 32°02' E 120°24'0 0.0
2015-Jan-30 07:33N 32°02' E 120°24'75155.8
2015-Jan-30 07:04N 31°12' E 121°30'75146.3
2015-Jan-30 06:33N 32°02' E 120°24'7538625.0
2015-Jan-30 06:33N 31°10' E 121°28'7766.9
2015-Jan-30 05:24N 31°57' E 120°15'969.3
2015-Jan-30 05:16N 32°02' E 120°24'3 4.9
2015-Jan-30 04:33N 31°59' E 120°21'312489.1
2015-Jan-30 04:33N 32°02' E 120°24'4 3.5
2015-Jan-30 03:33N 32°02' E 120°28'42110.0
2015-Jan-30 03:33N 32°02' E 120°24'9 9.5
2015-Jan-30 02:33N 32°01' E 120°35'9353.7
2015-Jan-30 02:32N 32°02' E 120°24'0 0.0
2015-Jan-30 01:33N 32°02' E 120°24'0 0.0
2015-Jan-30 00:33N 32°02' E 120°24'2254.0
2015-Jan-30 00:08N 31°60' E 120°50'2238.3
2015-Jan-29 23:33N 32°02' E 120°24'3782844.1
2015-Jan-29 23:25N 25°45' E 119°39'3785130.5
2015-Jan-29 23:21N 31°58' E 120°51'2329.4
2015-Jan-29 22:33N 32°02' E 120°24'0 0.0
2015-Jan-29 21:34N 32°02' E 120°24'0 0.0
2015-Jan-29 20:33N 32°02' E 120°24'0 0.0
2015-Jan-29 19:32N 32°02' E 120°24'0 0.0
2015-Jan-29 18:33N 32°02' E 120°24'0 0.0
2015-Jan-29 17:32N 32°02' E 120°24'0 0.0
2015-Jan-29 16:33N 32°02' E 120°24'2350.8
2015-Jan-29 16:06N 31°58' E 120°51'2342.8
2015-Jan-29 15:33N 32°02' E 120°24'23147.6
2015-Jan-29 15:24N 31°58' E 120°51'2327.7
2015-Jan-29 14:33N 32°02' E 120°24'2389.3
2015-Jan-29 14:18N 31°58' E 120°51'0 0.0
2015-Jan-29 13:18N 31°58' E 120°51'2313.3
2015-Jan-29 11:33N 32°02' E 120°24'0 0.0
2015-Jan-29 10:33N 32°02' E 120°24'4303197.7
2015-Jan-29 10:25N 38°54' E 117°55'7 7.6
2015-Jan-29 09:31N 38°49' E 117°49'43747699.8
2015-Jan-29 09:30N 31°58' E 120°51'437400.5
2015-Jan-29 08:25N 38°49' E 117°49'4372663.2
2015-Jan-29 08:15N 31°58' E 120°51'23257.4
2015-Jan-29 08:09N 32°02' E 120°24'0 0.0
2015-Jan-29 07:33N 32°02' E 120°24'0 0.0
2015-Jan-29 06:32N 32°02' E 120°24'4261512.1
2015-Jan-29 06:15N 38°49' E 117°49'426604.4
2015-Jan-29 05:33N 32°02' E 120°24'4261223.3
2015-Jan-29 05:12N 38°49' E 117°48'0 0.6
2015-Jan-29 04:33N 38°49' E 117°48'42673099.9
2015-Jan-29 04:33N 32°02' E 120°24'4651241.4
2015-Jan-29 04:10N 24°30' E 118°18'462750.0
2015-Jan-29 03:33N 31°59' E 120°20'811343.4
2015-Jan-29 03:30N 31°00' E 121°26'42563791.5
2015-Jan-29 03:29N 24°31' E 118°14'85911940.0
2015-Jan-29 03:25N 38°49' E 117°49'430498.5
2015-Jan-29 02:33N 31°56' E 120°15'4301518.4
2015-Jan-29 02:16N 38°49' E 117°49'8561196.7
2015-Jan-29 01:33N 24°34' E 118°11'85645307.2
2015-Jan-29 01:32N 38°49' E 117°48'856872.5
2015-Jan-29 00:33N 24°34' E 118°11'42217665.2
2015-Jan-29 00:32N 30°60' E 121°24'5021516.7
2015-Jan-29 00:12N 38°49' E 117°49'711.3
2015-Jan-28 23:32N 38°55' E 117°55'50311750.9
2015-Jan-28 23:30N 31°03' E 121°28'4992651.6
2015-Jan-28 23:19N 38°50' E 117°52'9788381.4
2015-Jan-28 23:12N 22°58' E 113°32'6 9.3
2015-Jan-28 22:33N 23°03' E 113°30'645464485.7
2015-Jan-28 22:33N 31°09' E 121°27'431776550.1
2015-Jan-28 22:33N 24°34' E 118°11'274273.1
2015-Jan-28 21:33N 23°06' E 113°27'0 0.0
2015-Jan-28 20:33N 23°06' E 113°27'0 0.0
2015-Jan-28 19:33N 23°06' E 113°27'65642175.3
2015-Jan-28 19:33N 31°21' E 121°30'4451222.6
2015-Jan-28 19:11N 24°32' E 118°12'275443.4
2015-Jan-28 18:33N 23°06' E 113°27'27234988.7
2015-Jan-28 18:33N 24°26' E 118°11'4494779.8
2015-Jan-28 18:27N 31°21' E 121°26'48154.3
2015-Jan-28 18:09N 31°58' E 120°51'6621120.3
2015-Jan-28 17:33N 23°06' E 113°27'66211134.6
2015-Jan-28 17:30N 31°58' E 120°51'4779432.0
2015-Jan-28 17:27N 24°25' E 118°01'263295.9
2015-Jan-28 16:33N 23°06' E 113°27'9764275.4
2015-Jan-28 16:20N 38°54' E 117°56'44014016.5
2015-Jan-28 16:18N 31°58' E 120°51'662887.9
2015-Jan-28 15:33N 23°06' E 113°27'66212220.6
2015-Jan-28 15:30N 31°58' E 120°51'662703.8
2015-Jan-28 14:33N 23°06' E 113°27'66211135.4
2015-Jan-28 14:30N 31°58' E 120°51'662703.1
2015-Jan-28 13:33N 23°06' E 113°27'6632528.2
2015-Jan-28 13:17N 31°59' E 120°51'663900.9
2015-Jan-28 12:33N 23°06' E 113°27'9852726.8
2015-Jan-28 12:12N 39°02' E 118°02'9851516.1
2015-Jan-28 11:33N 23°06' E 113°27'0 0.0
2015-Jan-28 10:33N 23°06' E 113°27'1 1.0
2015-Jan-28 09:33N 23°05' E 113°26'0 0.5
2015-Jan-28 08:33N 23°05' E 113°26'6631872.7
2015-Jan-28 08:12N 31°58' E 120°50'49777.9
2015-Jan-28 08:08N 31°23' E 121°30'6581139.4
2015-Jan-28 07:33N 23°05' E 113°26'65881663.3
2015-Jan-28 07:33N 31°21' E 121°33'658655.7
2015-Jan-28 06:33N 23°05' E 113°26'6632557.4
2015-Jan-28 06:17N 32°02' E 120°44'663911.0
2015-Jan-28 05:34N 23°05' E 113°26'0 0.0
2015-Jan-28 04:33N 23°05' E 113°26'97118107.5
2015-Jan-28 04:30N 38°49' E 117°48'41851897.1
2015-Jan-28 04:29N 32°04' E 119°56'640685.4
2015-Jan-28 03:33N 23°05' E 113°26'638328272.5
2015-Jan-28 03:33N 31°58' E 120°02'4255691.1
2015-Jan-28 03:29N 38°49' E 117°48'430467.3
2015-Jan-28 02:34N 31°56' E 120°12'641164922.4
2015-Jan-28 02:33N 23°05' E 113°26'9713290.5
2015-Jan-28 02:16N 38°49' E 117°48'428611.1
2015-Jan-28 01:34N 31°60' E 120°22'649146134.1
2015-Jan-28 01:33N 23°05' E 113°26'97134263.6
2015-Jan-28 01:32N 38°49' E 117°50'602315566.7
2015-Jan-28 01:08N 33°37' W 117°55'613010558.2
2015-Jan-28 00:34N 32°04' E 120°30'65898629.9
2015-Jan-28 00:33N 23°05' E 113°26'6659201.8
2015-Jan-28 00:29N 32°04' E 120°45'4303635.9
2015-Jan-28 00:22N 38°49' E 117°49'432538.3
2015-Jan-27 23:33N 32°00' E 120°39'65984692.4
2015-Jan-27 23:33N 23°05' E 113°26'97116722.0
2015-Jan-27 23:30N 38°49' E 117°49'9711036.5
2015-Jan-27 22:33N 23°05' E 113°26'664265477.3
2015-Jan-27 22:33N 31°60' E 120°50'664658.0
2015-Jan-27 21:33N 23°05' E 113°26'66059435.5
2015-Jan-27 21:32N 31°53' E 120°54'671.7
2015-Jan-27 21:27N 31°58' E 120°50'1314.4
2015-Jan-27 20:34N 31°47' E 120°58'658236892.3
2015-Jan-27 20:33N 23°05' E 113°26'66311470.9
2015-Jan-27 20:30N 31°58' E 120°50'48407.8
2015-Jan-27 20:23N 31°21' E 121°27'655795.0
2015-Jan-27 19:33N 23°05' E 113°26'66114078.4
2015-Jan-27 19:31N 31°45' E 121°05'241546.0
2015-Jan-27 19:30N 32°00' E 120°43'551405.6
2015-Jan-27 19:27N 31°22' E 121°30'2527.9
2015-Jan-27 18:33N 31°41' E 121°10'37530.8
2015-Jan-27 18:29N 32°01' E 120°33'4346.4
2015-Jan-27 17:34N 31°38' E 121°16'661237912.2
2015-Jan-27 17:33N 23°05' E 113°26'651167449.0
2015-Jan-27 17:33N 32°00' E 120°24'4292899.9
2015-Jan-27 17:24N 38°50' E 117°49'469553.3
2015-Jan-27 16:33N 31°33' E 121°20'6602375672.8
2015-Jan-27 16:33N 23°05' E 113°26'661662.6
2015-Jan-27 15:34N 31°30' E 121°26'661139926.2
2015-Jan-27 15:33N 23°05' E 113°26'660663.6
2015-Jan-27 14:34N 31°26' E 121°30'6601188425.5
2015-Jan-27 14:33N 23°05' E 113°26'0 0.0
2015-Jan-27 13:33N 23°05' E 113°26'66295279.4
2015-Jan-27 13:33N 31°23' E 121°36'4 4.4
2015-Jan-27 12:34N 31°20' E 121°40'662216557.8
2015-Jan-27 12:33N 23°05' E 113°26'662663.7
2015-Jan-27 11:34N 31°20' E 121°40'66266170.9
2015-Jan-27 11:33N 23°05' E 113°26'0 0.0
2015-Jan-27 10:33N 23°05' E 113°26'66210051.1
2015-Jan-27 10:30N 31°20' E 121°40'662707.3
2015-Jan-27 09:33N 23°05' E 113°26'66251785.6
2015-Jan-27 09:33N 31°20' E 121°40'4943615.2
2015-Jan-27 09:24N 38°56' E 117°49'9771147.0
2015-Jan-27 08:33N 23°05' E 113°26'66227699.3
2015-Jan-27 08:32N 31°20' E 121°40'662677.3
2015-Jan-27 07:33N 23°05' E 113°26'66229051.8
2015-Jan-27 07:32N 31°20' E 121°40'662676.8
2015-Jan-27 06:33N 23°05' E 113°26'66230155.0
2015-Jan-27 06:32N 31°20' E 121°40'662677.0
2015-Jan-27 05:33N 23°05' E 113°26'662183249.7
2015-Jan-27 05:33N 31°20' E 121°40'662666.9
2015-Jan-27 04:34N 23°05' E 113°26'66215988.2
2015-Jan-27 04:31N 31°20' E 121°40'4991563.3
2015-Jan-27 04:12N 38°59' E 117°43'9791529.8
2015-Jan-27 03:33N 23°05' E 113°26'662198614.0
2015-Jan-27 03:33N 31°22' E 121°38'662649.8
2015-Jan-27 02:32N 23°05' E 113°27'66324591.5
2015-Jan-27 02:31N 31°22' E 121°39'0 0.0
2015-Jan-27 01:34N 31°22' E 121°39'663113589.1
2015-Jan-27 01:33N 23°05' E 113°27'6563655.7
2015-Jan-27 01:22N 32°00' E 120°34'655798.5
2015-Jan-27 00:33N 23°06' E 113°27'655117819.3
2015-Jan-27 00:33N 32°01' E 120°32'691781.0
2015-Jan-27 00:31N 31°22' E 121°39'0 0.0
2015-Jan-26 23:34N 31°22' E 121°39'696347.7
2015-Jan-26 23:33N 32°01' E 120°32'655660.4
2015-Jan-26 22:33N 23°06' E 113°27'66214098.0
2015-Jan-26 22:31N 31°22' E 121°39'691366.8
2015-Jan-26 22:28N 32°01' E 120°32'655711.7
2015-Jan-26 21:32N 23°06' E 113°27'66221464.9
2015-Jan-26 21:31N 31°22' E 121°39'662694.9
2015-Jan-26 20:33N 23°06' E 113°27'65526184.1
2015-Jan-26 20:32N 32°01' E 120°31'693123.0
2015-Jan-26 20:31N 31°22' E 121°39'0 0.0
2015-Jan-26 19:33N 31°22' E 121°39'745089.6
2015-Jan-26 19:33N 32°01' E 120°25'738007.1
2015-Jan-26 19:32N 31°17' E 121°34'4541269.1
2015-Jan-26 19:11N 24°24' E 117°58'5 8.2
2015-Jan-26 18:33N 24°25' E 118°03'45581848.5
2015-Jan-26 18:33N 31°21' E 121°32'723608.9
2015-Jan-26 18:32N 31°58' E 120°19'74638.9
2015-Jan-26 18:25N 31°22' E 121°35'459533.9
2015-Jan-26 17:33N 24°21' E 118°11'45848486.0
2015-Jan-26 17:33N 31°23' E 121°30'448.2
2015-Jan-26 17:27N 31°22' E 121°35'7 7.9
2015-Jan-26 16:33N 31°26' E 121°28'78571.7
2015-Jan-26 16:33N 31°22' E 121°35'456410415.7
2015-Jan-26 16:33N 24°21' E 118°18'459461.5
2015-Jan-26 15:34N 31°30' E 121°23'132952.6
2015-Jan-26 15:33N 31°22' E 121°35'0 0.0
2015-Jan-26 14:33N 31°22' E 121°35'20187.9
2015-Jan-26 14:27N 31°35' E 121°18'2021.9
2015-Jan-26 13:33N 31°22' E 121°35'251243.7
2015-Jan-26 13:32N 31°39' E 121°13'2524.2
2015-Jan-26 12:29N 31°22' E 121°35'2 1.7
2015-Jan-26 11:33N 31°24' E 121°36'7979.4
2015-Jan-26 10:33N 31°55' E 120°11'7920336.1
2015-Jan-26 10:33N 31°24' E 121°36'420423.9
2015-Jan-26 09:33N 24°48' E 118°57'42048752.8
2015-Jan-26 09:33N 31°24' E 121°36'791664.8
2015-Jan-26 09:30N 31°55' E 120°11'7975.2
2015-Jan-26 08:27N 31°24' E 121°36'0 0.0
2015-Jan-26 07:33N 31°24' E 121°36'0 0.0
2015-Jan-26 06:33N 31°24' E 121°36'39820195.6
2015-Jan-26 06:32N 25°06' E 119°14'398379.0
2015-Jan-26 05:29N 31°24' E 121°36'0 0.1
2015-Jan-26 04:32N 31°24' E 121°36'0 0.0
2015-Jan-26 03:33N 31°24' E 121°36'27495.6
2015-Jan-26 03:30N 30°59' E 121°23'2727.2
2015-Jan-26 02:31N 31°24' E 121°36'0 0.0
2015-Jan-26 01:31N 31°24' E 121°36'0 0.0
2015-Jan-26 00:31N 31°24' E 121°36'0 0.0
2015-Jan-25 23:32N 31°24' E 121°36'761603.7
2015-Jan-25 23:29N 31°57' E 120°16'7146.0
2015-Jan-25 23:26N 31°55' E 120°08'1415.6
2015-Jan-25 22:33N 31°60' E 120°23'14325.3
2015-Jan-25 22:31N 31°55' E 120°08'81146130.3
2015-Jan-25 22:31N 31°24' E 121°36'3542804.5
2015-Jan-25 22:23N 25°45' E 119°39'379456.8
2015-Jan-25 21:33N 32°02' E 120°31'6720246.5
2015-Jan-25 21:33N 31°24' E 121°36'0 0.0
2015-Jan-25 20:33N 31°24' E 121°36'62111975.6
2015-Jan-25 20:33N 32°00' E 120°37'25202.1
2015-Jan-25 20:26N 31°55' E 120°08'0 0.0
2015-Jan-25 19:32N 31°55' E 120°08'814174.5
2015-Jan-25 19:31N 31°24' E 121°36'58369.2
2015-Jan-25 19:22N 32°01' E 120°44'1 0.9
2015-Jan-25 18:33N 32°01' E 120°45'3112587.1
2015-Jan-25 18:33N 31°55' E 120°08'8117189.8
2015-Jan-25 18:33N 31°24' E 121°36'0 0.0
2015-Jan-25 17:31N 31°24' E 121°36'58628.7
2015-Jan-25 17:25N 32°01' E 120°45'5866.1
2015-Jan-25 16:33N 31°24' E 121°36'58619.8
2015-Jan-25 16:27N 32°01' E 120°45'31155.6
2015-Jan-25 16:15N 31°55' E 120°08'81115.3
2015-Jan-25 15:33N 31°24' E 121°36'585064.0
2015-Jan-25 15:32N 32°01' E 120°45'31155.2
2015-Jan-25 15:20N 31°55' E 120°08'81104.3
2015-Jan-25 14:33N 31°24' E 121°36'0 0.0
2015-Jan-25 13:31N 31°24' E 121°36'581235.8
2015-Jan-25 13:28N 32°01' E 120°45'21314.1
2015-Jan-25 13:24N 31°58' E 120°20'7487.0
2015-Jan-25 12:33N 31°24' E 121°36'573712.2
2015-Jan-25 12:32N 32°01' E 120°46'5756.0
2015-Jan-25 11:32N 31°24' E 121°36'50455.9
2015-Jan-25 11:25N 31°57' E 120°52'5058.0
2015-Jan-25 10:33N 31°24' E 121°36'0 0.1
2015-Jan-25 09:32N 31°24' E 121°36'0 0.0
2015-Jan-25 08:33N 31°24' E 121°36'0 0.0
2015-Jan-25 07:30N 31°24' E 121°36'0 0.0
2015-Jan-25 06:33N 31°24' E 121°36'0 0.0
2015-Jan-25 05:32N 31°24' E 121°36'81650.5
2015-Jan-25 05:25N 31°55' E 120°08'8194.6
2015-Jan-25 04:33N 31°24' E 121°36'84268.1
2015-Jan-25 04:14N 31°57' E 120°05'84103.4
2015-Jan-25 03:25N 31°24' E 121°36'90288.4
2015-Jan-25 03:07N 31°59' E 119°59'89152.6
2015-Jan-25 02:32N 31°23' E 121°34'0 0.0
2015-Jan-25 01:33N 31°23' E 121°34'0 0.1
2015-Jan-25 00:33N 31°23' E 121°34'2 1.6
2015-Jan-24 23:33N 31°24' E 121°36'5129.2
2015-Jan-24 23:31N 31°23' E 121°30'9 9.8
2015-Jan-24 22:33N 31°20' E 121°41'134629.1
2015-Jan-24 22:33N 31°21' E 121°26'1312.7
2015-Jan-24 21:32N 31°20' E 121°41'5 5.2
2015-Jan-24 20:33N 31°22' E 121°36'6 6.2
2015-Jan-24 19:34N 31°26' E 121°29'61285.5
2015-Jan-24 19:33N 31°21' E 121°26'9 8.6
2015-Jan-24 18:33N 31°29' E 121°25'7 6.7
2015-Jan-24 17:34N 31°34' E 121°19'6 5.9
2015-Jan-24 16:30N 31°38' E 121°14'0 0.0
2015-Jan-24 15:33N 31°38' E 121°14'0 0.0
2015-Jan-24 14:33N 31°38' E 121°14'16 5.2
2015-Jan-24 11:33N 31°47' E 120°58'7 6.8
2015-Jan-24 10:33N 31°52' E 120°53'6 6.0
2015-Jan-24 09:33N 31°57' E 120°51'5 4.8
2015-Jan-24 08:33N 32°00' E 120°47'54410.8
2015-Jan-24 08:25N 31°22' E 121°30'5866.6
2015-Jan-24 07:33N 31°60' E 120°39'58199.1
2015-Jan-24 07:16N 31°21' E 121°31'6795.1
2015-Jan-24 06:33N 32°04' E 120°31'12588.6
2015-Jan-24 06:32N 32°02' E 120°45'57734.2
2015-Jan-24 06:28N 31°21' E 121°31'0 0.0
2015-Jan-24 05:33N 31°21' E 121°31'7084217.3
2015-Jan-24 05:33N 31°59' E 120°22'68201.4
2015-Jan-24 05:13N 31°21' E 121°27'73110.2
2015-Jan-24 04:33N 31°56' E 120°11'76736.9
2015-Jan-24 04:27N 31°21' E 121°31'210.6
2015-Jan-24 04:16N 31°23' E 121°30'84117.6
2015-Jan-24 03:33N 31°59' E 120°00'8638604.6
2015-Jan-24 03:33N 31°21' E 121°31'9493.8
2015-Jan-24 02:33N 32°07' E 119°54'9416843.3
2015-Jan-24 02:33N 31°21' E 121°31'0 0.2
2015-Jan-24 01:32N 31°21' E 121°31'9971566.9
2015-Jan-24 01:32N 32°15' E 119°52'6514234.9
2015-Jan-24 01:23N 22°58' E 113°32'652789.5
2015-Jan-24 00:33N 32°20' E 119°47'648333185.6
2015-Jan-24 00:33N 23°05' E 113°27'65633275.7
2015-Jan-24 00:32N 31°21' E 121°31'656669.4
2015-Jan-23 23:33N 23°06' E 113°27'65629171.4
2015-Jan-23 23:32N 31°21' E 121°31'48960729.5
2015-Jan-23 23:32N 38°56' E 117°50'9771003.0
2015-Jan-23 22:33N 23°06' E 113°27'65631089.1
2015-Jan-23 22:32N 31°21' E 121°31'1119061.2
2015-Jan-23 22:31N 32°11' E 119°34'635657.4
2015-Jan-23 21:33N 23°06' E 113°27'65629910.3
2015-Jan-23 21:32N 31°21' E 121°31'0 0.0
2015-Jan-23 20:32N 31°21' E 121°31'65641453.8
2015-Jan-23 20:31N 23°06' E 113°27'0 0.4
2015-Jan-23 19:33N 23°06' E 113°26'65722298.6
2015-Jan-23 19:32N 31°21' E 121°31'133656.3
2015-Jan-23 19:19N 32°15' E 119°07'626816.8
2015-Jan-23 18:33N 23°06' E 113°27'6605078.6
2015-Jan-23 18:26N 31°39' E 121°14'23222.1
2015-Jan-23 18:19N 31°21' E 121°31'656855.5
2015-Jan-23 17:33N 23°06' E 113°27'65922188.0
2015-Jan-23 17:32N 31°35' E 121°19'66333.0
2015-Jan-23 17:20N 31°58' E 120°06'8110008.6
2015-Jan-23 17:19N 31°21' E 121°31'656859.8
2015-Jan-23 16:33N 23°06' E 113°27'660237497.2
2015-Jan-23 16:33N 31°31' E 121°24'11304.3
2015-Jan-23 16:31N 31°21' E 121°31'77295.5
2015-Jan-23 16:16N 31°57' E 120°11'3 3.6
2015-Jan-23 15:34N 31°57' E 120°14'6421155567.1
2015-Jan-23 15:33N 23°06' E 113°27'66042412.1
2015-Jan-23 15:33N 31°28' E 121°28'758.5
2015-Jan-23 15:25N 31°21' E 121°31'481349.6
2015-Jan-23 15:23N 31°56' E 120°52'927450509.3
2015-Jan-23 15:12N 41°23' W 071°27'944714780.7
2015-Jan-23 14:34N 23°06' E 113°27'65925254.9
2015-Jan-23 14:32N 31°26' E 121°30'696727.6
2015-Jan-23 14:31N 31°58' E 120°18'72658.7
2015-Jan-23 14:25N 31°21' E 121°31'54219.1
2015-Jan-23 14:10N 32°00' E 120°46'6621082.5
2015-Jan-23 13:33N 23°06' E 113°27'64875307.7
2015-Jan-23 13:33N 31°60' E 120°21'705997.8
2015-Jan-23 13:32N 31°21' E 121°30'015.9
2015-Jan-23 13:30N 31°21' E 121°31'656691.3
2015-Jan-23 12:33N 23°06' E 113°27'652123610.8
2015-Jan-23 12:33N 32°02' E 120°26'681419.0
2015-Jan-23 12:30N 31°21' E 121°31'615768.9
2015-Jan-23 12:30N 31°60' E 120°35'656700.5
2015-Jan-23 11:34N 23°06' E 113°27'65527438.1
2015-Jan-23 11:32N 32°02' E 120°33'641981.0
2015-Jan-23 11:30N 31°21' E 121°31'652228.4
2015-Jan-23 11:28N 32°01' E 120°31'655715.6
2015-Jan-23 10:34N 23°06' E 113°26'65313511.1
2015-Jan-23 10:31N 32°02' E 120°27'686954.8
2015-Jan-23 10:30N 31°21' E 121°31'96606.0
2015-Jan-23 10:21N 29°51' E 122°08'618787.9
2015-Jan-23 09:33N 23°06' E 113°26'6192228842.9
2015-Jan-23 09:33N 29°56' E 122°05'15110276.0
2015-Jan-23 09:33N 32°01' E 120°25'21165.0
2015-Jan-23 09:25N 31°60' E 120°50'52916.7
2015-Jan-23 09:22N 31°21' E 121°31'657819.6
2015-Jan-23 08:34N 23°06' E 113°26'64949709.0
2015-Jan-23 08:33N 31°59' E 120°23'691453.0
2015-Jan-23 08:30N 31°21' E 121°31'0 0.0
2015-Jan-23 07:33N 31°21' E 121°31'657139040.1
2015-Jan-23 07:33N 23°06' E 113°26'0 0.0
2015-Jan-23 06:33N 23°06' E 113°26'6574125.1
2015-Jan-23 06:24N 31°21' E 121°31'0 0.0
2015-Jan-23 05:33N 31°21' E 121°31'65784417.7
2015-Jan-23 05:33N 23°06' E 113°26'6602576.0
2015-Jan-23 05:18N 31°35' E 121°19'660895.2
2015-Jan-23 04:33N 23°06' E 113°26'6579807.5
2015-Jan-23 04:29N 31°21' E 121°31'111250.3
2015-Jan-23 04:29N 31°31' E 121°24'1112.3
2015-Jan-23 03:33N 31°21' E 121°31'65738748.4
2015-Jan-23 03:32N 23°06' E 113°26'66091366.0
2015-Jan-23 03:31N 31°27' E 121°29'5153.3
2015-Jan-23 02:33N 30°41' E 121°56'453082.6
2015-Jan-23 02:33N 31°21' E 121°31'65687472.7
2015-Jan-23 02:32N 23°05' E 113°28'9 7.2
2015-Jan-23 01:21N 22°58' E 113°32'659395641.2
2015-Jan-23 01:21N 31°21' E 121°30'45317.5
2015-Jan-23 01:12N 30°48' E 122°06'4559.1
2015-Jan-23 00:26N 31°21' E 121°30'0 0.0
2015-Jan-22 23:32N 31°21' E 121°30'57225.9
2015-Jan-22 23:17N 32°04' E 120°45'5776.7
2015-Jan-22 22:32N 31°21' E 121°30'6104211304.5
2015-Jan-22 22:30N 33°37' W 117°55'61046426.8
2015-Jan-22 21:33N 31°23' E 121°30'222586.7
2015-Jan-22 21:33N 31°10' E 121°51'20887.2
2015-Jan-22 21:32N 31°21' E 121°30'6104327995.2
2015-Jan-22 21:30N 33°37' W 117°55'6148110656.4
2015-Jan-22 21:27N 31°57' E 120°15'7 7.5
2015-Jan-22 20:33N 31°60' E 120°22'8226696.1
2015-Jan-22 20:33N 31°17' E 121°44'12632.9
2015-Jan-22 20:32N 31°21' E 121°31'5 5.4
2015-Jan-22 19:33N 31°22' E 121°37'5175.4
2015-Jan-22 19:32N 31°21' E 121°31'6916447.7
2015-Jan-22 19:31N 32°01' E 120°24'5 4.8
2015-Jan-22 18:33N 32°02' E 120°30'643452.9
2015-Jan-22 18:32N 31°25' E 121°31'4441.1
2015-Jan-22 18:31N 31°21' E 121°31'0 0.0
2015-Jan-22 17:31N 31°21' E 121°31'7944.9
2015-Jan-22 17:31N 31°28' E 121°27'59152.8
2015-Jan-22 17:08N 32°02' E 120°31'5493.1
2015-Jan-22 16:33N 31°30' E 121°23'11411.7
2015-Jan-22 16:31N 31°21' E 121°31'657808.3
2015-Jan-22 16:31N 32°02' E 120°31'68246416.3
2015-Jan-22 16:31N 31°19' E 121°33'4 4.7
2015-Jan-22 15:33N 31°22' E 121°30'643491.7
2015-Jan-22 15:32N 32°02' E 120°31'6510176.7
2015-Jan-22 15:31N 31°21' E 121°30'19556.7
2015-Jan-22 15:29N 31°36' E 121°17'1718.3
2015-Jan-22 14:33N 31°25' E 121°31'393.4
2015-Jan-22 14:31N 31°21' E 121°30'652690.5
2015-Jan-22 14:30N 32°02' E 120°31'4376847.0
2015-Jan-22 14:26N 39°02' E 118°02'437501.9
2015-Jan-22 13:33N 32°02' E 120°31'574037.8
2015-Jan-22 13:33N 31°29' E 121°25'8272.5
2015-Jan-22 13:31N 31°21' E 121°30'610498105.6
2015-Jan-22 13:27N 33°37' W 117°55'61076842.3
2015-Jan-22 12:33N 31°33' E 121°20'512619.5
2015-Jan-22 12:32N 32°02' E 120°31'652659.8
2015-Jan-22 12:31N 31°21' E 121°30'47555.0
2015-Jan-22 12:26N 31°55' E 120°52'61176957.2
2015-Jan-22 11:33N 33°37' W 117°55'6104138211.7
2015-Jan-22 11:30N 31°21' E 121°30'22324.5
2015-Jan-22 11:26N 31°38' E 121°14'2223.8
2015-Jan-22 10:30N 31°21' E 121°30'59314.8
2015-Jan-22 10:19N 31°60' E 120°37'4405694.6
2015-Jan-22 10:14N 38°60' E 117°57'6 8.0
2015-Jan-22 09:33N 38°55' E 117°55'43281847.3
2015-Jan-22 09:33N 32°03' E 120°34'631471.7
2015-Jan-22 09:30N 31°21' E 121°31'533534.9
2015-Jan-22 09:29N 32°01' E 120°49'213927.0
2015-Jan-22 09:29N 31°46' E 121°06'457490.1
2015-Jan-22 08:33N 38°55' E 117°53'43032927.9
2015-Jan-22 08:32N 32°04' E 120°28'682284.8
2015-Jan-22 08:30N 31°21' E 121°31'490515.5
2015-Jan-22 07:33N 38°60' E 117°57'6011118248.7
2015-Jan-22 07:30N 33°37' W 117°55'61043662589.5
2015-Jan-22 07:30N 31°21' E 121°31'61046436.9
2015-Jan-22 06:33N 33°37' W 117°55'6104110429.8
2015-Jan-22 06:30N 31°21' E 121°31'0 0.0
2015-Jan-22 05:30N 31°21' E 121°31'0 0.0
2015-Jan-22 04:32N 31°21' E 121°31'0 0.0
2015-Jan-22 03:29N 31°21' E 121°31'0 0.1
2015-Jan-22 02:32N 31°21' E 121°30'0 0.0
2015-Jan-22 01:29N 31°21' E 121°30'0 0.0
2015-Jan-22 00:29N 31°21' E 121°30'862143.8
2015-Jan-22 00:26N 31°60' E 119°60'6 6.8
2015-Jan-21 23:31N 31°57' E 120°06'802644.4
2015-Jan-21 23:29N 31°21' E 121°30'75117.6
2015-Jan-21 22:50N 31°56' E 120°12'751163.9
2015-Jan-21 22:46N 31°21' E 121°30'754641.5
2015-Jan-21 22:45N 31°56' E 120°13'75928.3
2015-Jan-21 22:41N 31°21' E 121°30'74573.0
2015-Jan-21 22:33N 31°56' E 120°14'741022.1
2015-Jan-21 22:29N 31°21' E 121°30'7075.7
2015-Jan-21 21:33N 32°00' E 120°22'691071.8
2015-Jan-21 21:29N 31°23' E 121°30'195.8
2015-Jan-21 21:28N 31°21' E 121°30'934510139.4
2015-Jan-21 20:33N 41°22' W 071°30'9252724035.7
2015-Jan-21 20:32N 32°04' E 120°31'67988.2
2015-Jan-21 20:28N 31°21' E 121°31'5963.8
2015-Jan-21 19:33N 32°00' E 120°39'59709.6
2015-Jan-21 19:28N 31°21' E 121°31'659118606.3
2015-Jan-21 19:28N 22°59' E 113°31'9454709071.1
2015-Jan-21 19:27N 41°14' W 071°15'944410519.4
2015-Jan-21 18:33N 23°06' E 113°27'6567137.1
2015-Jan-21 18:28N 31°21' E 121°31'522011.2
2015-Jan-21 18:26N 31°60' E 120°49'663748.8
2015-Jan-21 17:33N 23°06' E 113°27'66013354.5
2015-Jan-21 17:30N 31°54' E 120°53'461147.9
2015-Jan-21 17:28N 31°21' E 121°31'656720.5
2015-Jan-21 16:33N 23°06' E 113°27'6567073.0
2015-Jan-21 16:28N 31°21' E 121°31'39541.6
2015-Jan-21 16:23N 31°48' E 120°56'  

Dump ship's entire track history